Time;durP1;ratioP1;P1;durP2;ratioP2;P2;SDS_P1;SDS_P2;PMS_P1;PMS_P2;Temp;Humidity;BMP_temperature;BMP_pressure;BME280_temperature;BME280_humidity;BME280_pressure;Samples;Min_cycle;Max_cycle;Signal;HPM_P1;HPM_P2
2023/10/02 00:02:06;;;;;;;;;;;13.90;83.70;;;;;;5020096;28;19936;-71
2023/10/02 00:04:41;;;;;;;;;;;13.90;83.80;;;;;;5009881;28;20278;-71
2023/10/02 00:07:22;;;;;;;;;;;13.90;83.80;;;;;;5011639;28;19940;-70
2023/10/02 00:09:56;;;;;;;;;;;13.90;83.70;;;;;;5016060;28;19936;-70
2023/10/02 00:12:31;;;;;;;;;;;13.90;83.50;;;;;;5014830;28;20364;-70
2023/10/02 00:15:12;;;;;;;;;;;13.90;83.50;;;;;;5019371;28;20459;-70
2023/10/02 00:17:48;;;;;;;;;;;13.90;83.60;;;;;;5017708;28;19932;-70
2023/10/02 00:20:22;;;;;;;;;;;13.80;83.50;;;;;;5018456;28;20391;-70
2023/10/02 00:22:56;;;;;;;;;;;13.80;83.60;;;;;;5017506;28;20381;-69
2023/10/02 00:25:30;;;;;;;;;;;13.80;83.60;;;;;;5018985;28;19925;-70
2023/10/02 00:28:08;;;;;;;;;;;13.80;83.60;;;;;;5017842;28;20061;-70
2023/10/02 00:30:42;;;;;;;;;;;13.70;83.50;;;;;;5020254;28;19930;-70
2023/10/02 00:33:15;;;;;;;;;;;13.70;83.50;;;;;;5017475;28;19937;-70
2023/10/02 00:35:51;;;;;;;;;;;13.60;83.50;;;;;;5019891;28;20381;-70
2023/10/02 00:38:26;;;;;;;;;;;13.60;83.50;;;;;;4990035;28;19948;-71
2023/10/02 00:41:02;;;;;;;;;;;13.60;83.60;;;;;;5003723;28;19968;-72
2023/10/02 00:43:34;;;;;;;;;;;13.60;83.50;;;;;;5026498;28;19944;-70
2023/10/02 00:46:23;;;;;;;;;;;13.60;83.50;;;;;;5018119;28;19933;-71
2023/10/02 00:48:56;;;;;;;;;;;13.60;83.50;;;;;;5018998;28;19928;-70
2023/10/02 00:51:29;;;;;;;;;;;13.60;83.50;;;;;;5017384;28;19935;-70
2023/10/02 00:54:23;;;;;;;;;;;13.50;83.60;;;;;;5016382;28;19975;-71
2023/10/02 00:56:56;;;;;;;;;;;13.50;83.50;;;;;;5016038;28;20505;-70
2023/10/02 00:59:30;;;;;;;;;;;13.50;83.30;;;;;;5013533;28;20499;-71
2023/10/02 01:02:05;;;;;;;;;;;13.50;83.30;;;;;;5009510;28;19930;-70
2023/10/02 01:04:38;;;;;;;;;;;13.50;83.30;;;;;;5016009;28;19947;-71
2023/10/02 01:07:15;;;;;;;;;;;13.50;83.10;;;;;;5015694;28;19938;-70
2023/10/02 01:12:43;;;;;;;;;;;13.50;83.20;;;;;;5004440;28;20068;-70
2023/10/02 01:15:19;;;;;;;;;;;13.40;83.20;;;;;;5017536;28;19937;-71
2023/10/02 01:17:53;;;;;;;;;;;13.40;83.20;;;;;;5010060;28;19925;-69
2023/10/02 01:20:35;;;;;;;;;;;13.40;83.20;;;;;;5017177;28;19936;-70
2023/10/02 01:23:16;;;;;;;;;;;13.40;83.20;;;;;;5020760;28;19929;-69
2023/10/02 01:25:50;;;;;;;;;;;13.40;83.10;;;;;;5021957;28;19925;-69
2023/10/02 01:28:49;;;;;;;;;;;13.40;83.20;;;;;;5031817;28;20011;-71
2023/10/02 01:31:40;;;;;;;;;;;13.30;83.30;;;;;;5018114;28;19933;-71
2023/10/02 01:34:33;;;;;;;;;;;13.30;83.30;;;;;;5016793;28;19984;-71
2023/10/02 01:37:32;;;;;;;;;;;13.30;83.10;;;;;;5021913;28;20391;-70
2023/10/02 01:42:49;;;;;;;;;;;13.30;83.20;;;;;;4986542;28;20384;-70
2023/10/02 01:45:22;;;;;;;;;;;13.20;83.10;;;;;;5019584;28;19925;-70
2023/10/02 01:47:55;;;;;;;;;;;13.20;83.20;;;;;;5011216;28;19976;-68
2023/10/02 01:50:30;;;;;;;;;;;13.20;83.20;;;;;;5008006;28;20024;-72
2023/10/02 01:53:05;;;;;;;;;;;13.10;83.30;;;;;;5007576;28;19941;-70
2023/10/02 01:55:40;;;;;;;;;;;13.10;83.30;;;;;;4998836;28;20332;-71
2023/10/02 01:58:18;;;;;;;;;;;13.10;83.30;;;;;;4995999;28;19930;-70
2023/10/02 02:00:51;;;;;;;;;;;13.10;83.20;;;;;;4982841;28;19938;-70
2023/10/02 02:03:28;;;;;;;;;;;13.10;83.20;;;;;;5014346;28;19925;-72
2023/10/02 02:06:08;;;;;;;;;;;13.10;83.40;;;;;;5024462;28;20672;-71
2023/10/02 02:08:44;;;;;;;;;;;13.10;83.40;;;;;;5016421;28;19929;-71
2023/10/02 02:11:20;;;;;;;;;;;13.10;83.40;;;;;;5031322;28;19928;-70
2023/10/02 02:13:55;;;;;;;;;;;13.10;83.30;;;;;;5021587;28;20016;-70
2023/10/02 02:16:33;;;;;;;;;;;13.10;83.30;;;;;;5001888;28;19934;-70
2023/10/02 02:19:07;;;;;;;;;;;13.00;83.20;;;;;;4998246;28;20391;-70
2023/10/02 02:21:47;;;;;;;;;;;13.10;83.20;;;;;;5000687;28;20017;-64
2023/10/02 02:24:22;;;;;;;;;;;13.00;83.20;;;;;;5016277;28;19937;-64
2023/10/02 02:27:04;;;;;;;;;;;13.00;83.00;;;;;;5021035;28;19925;-66
2023/10/02 02:29:39;;;;;;;;;;;13.00;83.10;;;;;;5020793;28;19929;-64
2023/10/02 02:32:12;;;;;;;;;;;13.00;83.10;;;;;;5016061;28;19935;-64
2023/10/02 02:34:46;;;;;;;;;;;12.90;83.00;;;;;;5015710;28;20042;-64
2023/10/02 02:37:28;;;;;;;;;;;12.90;83.00;;;;;;5018572;28;19926;-64
2023/10/02 02:42:50;;;;;;;;;;;12.90;83.10;;;;;;5019108;28;19982;-64
2023/10/02 02:45:29;;;;;;;;;;;12.90;83.10;;;;;;5019184;28;20021;-64
2023/10/02 02:48:04;;;;;;;;;;;12.90;83.20;;;;;;5011997;28;19952;-64
2023/10/02 02:50:37;;;;;;;;;;;12.80;83.20;;;;;;5028535;28;20411;-65
2023/10/02 02:53:23;;;;;;;;;;;12.80;83.10;;;;;;5016300;28;19930;-65
2023/10/02 02:56:10;;;;;;;;;;;12.90;83.20;;;;;;5015877;28;19977;-64
2023/10/02 02:58:44;;;;;;;;;;;12.90;83.30;;;;;;5008596;28;19937;-63
2023/10/02 03:01:22;;;;;;;;;;;12.80;83.60;;;;;;5016035;28;19929;-64
2023/10/02 03:04:11;;;;;;;;;;;12.80;83.60;;;;;;5013772;28;19925;-63
2023/10/02 03:06:44;;;;;;;;;;;12.70;83.70;;;;;;5006214;28;19933;-63
2023/10/02 03:09:23;;;;;;;;;;;12.70;83.70;;;;;;4997533;28;19933;-64
2023/10/02 03:11:56;;;;;;;;;;;12.60;83.70;;;;;;4992596;28;19929;-65
2023/10/02 03:14:29;;;;;;;;;;;12.60;83.60;;;;;;4993760;28;19949;-64
2023/10/02 03:19:51;;;;;;;;;;;12.60;83.60;;;;;;4996390;28;19932;-63
2023/10/02 03:22:27;;;;;;;;;;;12.50;83.60;;;;;;4997445;28;19930;-63
2023/10/02 03:25:25;;;;;;;;;;;12.60;83.40;;;;;;4998462;28;20016;-64
2023/10/02 03:27:57;;;;;;;;;;;12.50;83.60;;;;;;4993598;28;19984;-64
2023/10/02 03:30:38;;;;;;;;;;;12.50;83.70;;;;;;5000027;28;19929;-64
2023/10/02 03:33:18;;;;;;;;;;;12.50;83.70;;;;;;4999215;28;20308;-62
2023/10/02 03:35:58;;;;;;;;;;;12.50;83.50;;;;;;5000023;28;19931;-63
2023/10/02 03:38:33;;;;;;;;;;;12.40;83.50;;;;;;5019810;28;19929;-63
2023/10/02 03:41:06;;;;;;;;;;;12.40;83.80;;;;;;4996949;28;19932;-64
2023/10/02 03:43:43;;;;;;;;;;;12.40;83.70;;;;;;5001550;28;19984;-64
2023/10/02 03:46:22;;;;;;;;;;;12.40;83.80;;;;;;5012172;28;20586;-64
2023/10/02 03:48:59;;;;;;;;;;;12.30;83.90;;;;;;5013964;28;19979;-63
2023/10/02 03:51:40;;;;;;;;;;;12.40;83.90;;;;;;5019075;28;20459;-63
2023/10/02 03:54:20;;;;;;;;;;;12.40;83.90;;;;;;5016297;28;20004;-63
2023/10/02 03:56:55;;;;;;;;;;;12.30;84.00;;;;;;5016632;28;19925;-64
2023/10/02 03:59:32;;;;;;;;;;;12.30;84.00;;;;;;5018813;28;19926;-63
2023/10/02 04:04:56;;;;;;;;;;;12.30;84.00;;;;;;5018648;28;20284;-66
2023/10/02 04:07:30;;;;;;;;;;;12.20;83.90;;;;;;5016954;28;19976;-63
2023/10/02 04:10:06;;;;;;;;;;;12.20;83.90;;;;;;5009495;28;19937;-66
2023/10/02 04:12:50;;;;;;;;;;;12.20;83.90;;;;;;5016400;28;20418;-63
2023/10/02 04:15:24;;;;;;;;;;;12.20;83.80;;;;;;5016902;28;19933;-63
2023/10/02 04:17:57;;;;;;;;;;;12.20;83.80;;;;;;5016767;28;19925;-63
2023/10/02 04:20:27;;;;;;;;;;;12.20;83.70;;;;;;5015719;28;19929;-63
2023/10/02 04:23:18;;;;;;;;;;;12.10;83.70;;;;;;5014458;28;20012;-65
2023/10/02 04:25:52;;;;;;;;;;;12.10;83.80;;;;;;5019819;28;19929;-64
2023/10/02 04:28:27;;;;;;;;;;;12.10;83.60;;;;;;5012724;28;19936;-65
2023/10/02 04:31:05;;;;;;;;;;;12.10;83.70;;;;;;5017368;28;20373;-65
2023/10/02 04:33:39;;;;;;;;;;;12.10;83.80;;;;;;5019650;28;19952;-65
2023/10/02 04:36:14;;;;;;;;;;;12.10;83.70;;;;;;5018799;28;20417;-63
2023/10/02 04:38:55;;;;;;;;;;;12.10;83.70;;;;;;5020201;28;19925;-64
2023/10/02 04:41:29;;;;;;;;;;;12.10;83.90;;;;;;4990272;28;20364;-69
2023/10/02 04:44:04;;;;;;;;;;;12.00;83.90;;;;;;5013375;28;19936;-70
2023/10/02 04:46:36;;;;;;;;;;;12.00;83.90;;;;;;5016477;28;19940;-69
2023/10/02 04:49:09;;;;;;;;;;;12.10;83.70;;;;;;5018111;28;19933;-69
2023/10/02 04:51:46;;;;;;;;;;;12.10;83.70;;;;;;5016887;28;19932;-71
2023/10/02 04:54:19;;;;;;;;;;;12.00;83.90;;;;;;5022360;28;19929;-69
2023/10/02 04:57:11;;;;;;;;;;;12.00;83.90;;;;;;5020747;28;19948;-69
2023/10/02 04:59:54;;;;;;;;;;;12.00;83.80;;;;;;5015799;28;19929;-71
2023/10/02 05:02:29;;;;;;;;;;;12.00;83.60;;;;;;5017819;28;19936;-70
2023/10/02 05:05:06;;;;;;;;;;;12.00;83.80;;;;;;5021666;28;19930;-71
2023/10/02 05:07:41;;;;;;;;;;;12.00;84.00;;;;;;5021436;28;19965;-71
2023/10/02 05:10:14;;;;;;;;;;;12.00;83.90;;;;;;5021403;28;19944;-71
2023/10/02 05:12:46;;;;;;;;;;;11.90;84.00;;;;;;5018914;28;19936;-71
2023/10/02 05:15:20;;;;;;;;;;;11.90;84.10;;;;;;5014878;28;19929;-71
2023/10/02 05:17:55;;;;;;;;;;;11.90;84.10;;;;;;5018070;28;19924;-71
2023/10/02 05:20:38;;;;;;;;;;;11.90;84.10;;;;;;5020806;28;19933;-69
2023/10/02 05:23:11;;;;;;;;;;;11.90;84.30;;;;;;5021999;28;19991;-69
2023/10/02 05:25:47;;;;;;;;;;;11.90;84.30;;;;;;5017443;28;19932;-71
2023/10/02 05:28:21;;;;;;;;;;;11.90;84.20;;;;;;5019965;28;19933;-70
2023/10/02 05:30:54;;;;;;;;;;;12.00;84.30;;;;;;5015241;28;19965;-69
2023/10/02 05:33:37;;;;;;;;;;;11.90;84.30;;;;;;5016301;28;19925;-71
2023/10/02 05:36:14;;;;;;;;;;;12.00;84.20;;;;;;5020431;28;19932;-70
2023/10/02 05:41:44;;;;;;;;;;;11.90;84.40;;;;;;5016235;28;19930;-70
2023/10/02 05:44:20;;;;;;;;;;;11.90;84.50;;;;;;5016850;28;19925;-71
2023/10/02 05:46:57;;;;;;;;;;;12.00;84.20;;;;;;5019342;28;19929;-70
2023/10/02 05:49:31;;;;;;;;;;;12.00;84.20;;;;;;5019285;28;20434;-70
2023/10/02 05:52:07;;;;;;;;;;;11.90;84.30;;;;;;5015604;28;20440;-61
2023/10/02 05:54:47;;;;;;;;;;;11.90;84.30;;;;;;5018871;28;19925;-61
2023/10/02 05:57:20;;;;;;;;;;;11.90;84.40;;;;;;5019796;28;19996;-60
2023/10/02 05:59:54;;;;;;;;;;;12.00;84.20;;;;;;5014317;28;22078;-60
2023/10/02 06:02:27;;;;;;;;;;;12.00;84.00;;;;;;4997927;28;20404;-60
2023/10/02 06:05:07;;;;;;;;;;;12.00;84.10;;;;;;4999831;28;19926;-60
2023/10/02 06:07:44;;;;;;;;;;;12.00;84.10;;;;;;4999614;28;19933;-61
2023/10/02 06:10:25;;;;;;;;;;;12.00;84.30;;;;;;4998543;28;20388;-61
2023/10/02 06:13:04;;;;;;;;;;;12.00;84.20;;;;;;5013801;28;19940;-61
2023/10/02 06:15:47;;;;;;;;;;;12.00;84.40;;;;;;4999866;28;19933;-60
2023/10/02 06:18:27;;;;;;;;;;;11.90;84.40;;;;;;4996421;28;19925;-61
2023/10/02 06:21:00;;;;;;;;;;;12.00;84.50;;;;;;4997440;28;19932;-62
2023/10/02 06:23:37;;;;;;;;;;;12.00;84.50;;;;;;5000527;28;19925;-60
2023/10/02 06:26:11;;;;;;;;;;;12.10;84.50;;;;;;4998073;28;19932;-62
2023/10/02 06:29:13;;;;;;;;;;;12.00;84.60;;;;;;4994549;28;20400;-60
2023/10/02 06:31:42;;;;;;;;;;;12.10;84.40;;;;;;5012271;28;20446;-61
2023/10/02 06:34:15;;;;;;;;;;;12.10;84.30;;;;;;5019530;28;19980;-61
2023/10/02 06:36:49;;;;;;;;;;;12.10;84.30;;;;;;5019783;28;19936;-61
2023/10/02 06:39:22;;;;;;;;;;;12.20;84.40;;;;;;5021634;28;19925;-60
2023/10/02 06:42:04;;;;;;;;;;;12.20;84.20;;;;;;5020167;28;19975;-61
2023/10/02 06:44:42;;;;;;;;;;;12.20;84.20;;;;;;5017664;28;20368;-61
2023/10/02 06:47:16;;;;;;;;;;;12.20;84.30;;;;;;5019805;28;19931;-62
2023/10/02 06:49:51;;;;;;;;;;;12.30;84.40;;;;;;5019552;28;20316;-61
2023/10/02 06:52:18;;;;;;;;;;;12.30;84.30;;;;;;5020404;28;19930;-63
2023/10/02 06:54:56;;;;;;;;;;;12.40;84.50;;;;;;5020141;28;19941;-61
2023/10/02 06:57:31;;;;;;;;;;;12.40;84.40;;;;;;5007391;28;20369;-61
2023/10/02 07:00:09;;;;;;;;;;;12.40;84.50;;;;;;4993515;28;19949;-61
2023/10/02 07:02:54;;;;;;;;;;;12.40;84.70;;;;;;4990948;28;19929;-63
2023/10/02 07:05:32;;;;;;;;;;;12.40;84.70;;;;;;4998017;28;19926;-63
2023/10/02 07:08:17;;;;;;;;;;;12.50;84.80;;;;;;4997143;28;19930;-62
2023/10/02 07:10:51;;;;;;;;;;;12.50;84.60;;;;;;4994830;28;19933;-64
2023/10/02 07:13:25;;;;;;;;;;;12.60;84.90;;;;;;4998362;28;20519;-64
2023/10/02 07:15:59;;;;;;;;;;;12.60;84.60;;;;;;4997685;28;19930;-63
2023/10/02 07:18:37;;;;;;;;;;;12.60;84.50;;;;;;4997728;28;19925;-63
2023/10/02 07:21:10;;;;;;;;;;;12.70;85.00;;;;;;5000716;28;20334;-63
2023/10/02 07:23:45;;;;;;;;;;;12.70;85.10;;;;;;4994750;28;19926;-65
2023/10/02 07:26:19;;;;;;;;;;;12.80;84.80;;;;;;4998759;28;19929;-63
2023/10/02 07:28:53;;;;;;;;;;;12.90;84.70;;;;;;4998307;28;19933;-63
2023/10/02 07:31:27;;;;;;;;;;;12.90;85.10;;;;;;5015927;28;19929;-63
2023/10/02 07:34:00;;;;;;;;;;;13.00;85.00;;;;;;5015691;28;20000;-63
2023/10/02 07:36:44;;;;;;;;;;;13.10;85.10;;;;;;5018177;28;19933;-64
2023/10/02 07:42:06;;;;;;;;;;;13.30;85.00;;;;;;5015572;28;20287;-64
2023/10/02 07:44:41;;;;;;;;;;;13.30;85.30;;;;;;5018925;28;19948;-63
2023/10/02 07:47:18;;;;;;;;;;;13.30;85.20;;;;;;5016081;28;20411;-64
2023/10/02 07:49:46;;;;;;;;;;;13.40;85.00;;;;;;5015364;28;19929;-64
2023/10/02 07:52:35;;;;;;;;;;;13.50;84.90;;;;;;5014336;28;19925;-63
2023/10/02 07:55:10;;;;;;;;;;;13.60;85.40;;;;;;4990290;28;19933;-63
2023/10/02 07:57:43;;;;;;;;;;;13.70;85.80;;;;;;5008876;28;19932;-64
2023/10/02 08:05:57;;;;;;;;;;;14.10;86.20;;;;;;5009863;28;19925;-64
2023/10/02 08:08:33;;;;;;;;;;;14.20;85.60;;;;;;5017777;28;20292;-64
2023/10/02 08:11:11;;;;;;;;;;;14.30;85.90;;;;;;5010864;28;19925;-65
2023/10/02 08:13:48;;;;;;;;;;;14.40;85.80;;;;;;5017337;28;19932;-74
2023/10/02 08:16:22;;;;;;;;;;;14.50;86.10;;;;;;4981844;28;20021;-74
2023/10/02 08:18:58;;;;;;;;;;;14.60;85.90;;;;;;4980254;28;19925;-73
2023/10/02 08:21:35;;;;;;;;;;;14.70;86.10;;;;;;4982858;28;20316;-73
2023/10/02 08:24:11;;;;;;;;;;;14.90;85.60;;;;;;4982100;28;19961;-72
2023/10/02 08:26:44;;;;;;;;;;;15.10;84.90;;;;;;4981443;28;19980;-72
2023/10/02 08:29:18;;;;;;;;;;;15.10;84.60;;;;;;4981902;28;19927;-72
2023/10/02 08:31:53;;;;;;;;;;;15.30;84.30;;;;;;4980210;28;19934;-72
2023/10/02 08:34:26;;;;;;;;;;;15.50;84.10;;;;;;4990186;28;20017;-72
2023/10/02 08:37:07;;;;;;;;;;;15.60;83.70;;;;;;5009964;28;19929;-72
2023/10/02 08:39:54;;;;;;;;;;;15.70;84.00;;;;;;5016421;28;20208;-73
2023/10/02 08:42:35;;;;;;;;;;;15.80;83.70;;;;;;5011488;28;20020;-72
2023/10/02 08:45:18;;;;;;;;;;;15.90;83.70;;;;;;5012374;28;20522;-72
2023/10/02 08:47:53;;;;;;;;;;;16.10;83.40;;;;;;5018220;28;19987;-71
2023/10/02 08:50:27;;;;;;;;;;;16.20;83.40;;;;;;5016910;28;20372;-71
2023/10/02 08:53:04;;;;;;;;;;;16.20;83.30;;;;;;5015806;28;20023;-72
2023/10/02 08:55:51;;;;;;;;;;;16.40;82.90;;;;;;5017868;28;19925;-72
2023/10/02 08:58:27;;;;;;;;;;;16.60;82.50;;;;;;5015033;28;19965;-72
2023/10/02 09:01:17;;;;;;;;;;;16.60;82.50;;;;;;5014378;28;19933;-71
2023/10/02 09:04:21;;;;;;;;;;;16.70;82.50;;;;;;5015757;28;19933;-72
2023/10/02 09:06:58;;;;;;;;;;;16.80;81.70;;;;;;5013809;28;19930;-72
2023/10/02 09:09:36;;;;;;;;;;;17.00;81.50;;;;;;4999724;28;19933;-71
2023/10/02 09:12:14;;;;;;;;;;;17.10;81.40;;;;;;4997728;28;19925;-71
2023/10/02 09:14:51;;;;;;;;;;;17.30;80.60;;;;;;4994686;28;19929;-71
2023/10/02 09:17:25;;;;;;;;;;;17.40;79.90;;;;;;5016593;28;19980;-72
2023/10/02 09:20:03;;;;;;;;;;;17.60;79.90;;;;;;5011584;28;20389;-72
2023/10/02 09:22:37;;;;;;;;;;;17.70;79.30;;;;;;5013050;28;19933;-68
2023/10/02 09:25:15;;;;;;;;;;;17.80;78.60;;;;;;5015594;28;19940;-69
2023/10/02 09:27:56;;;;;;;;;;;17.90;78.70;;;;;;5017126;28;19940;-69
2023/10/02 09:30:41;;;;;;;;;;;18.10;78.00;;;;;;5002376;28;19930;-69
2023/10/02 09:33:22;;;;;;;;;;;18.10;77.20;;;;;;4993898;28;20097;-69
2023/10/02 09:36:00;;;;;;;;;;;18.20;77.40;;;;;;4996347;28;20017;-69
2023/10/02 09:38:33;;;;;;;;;;;18.30;78.00;;;;;;4994491;28;19936;-70
2023/10/02 09:41:15;;;;;;;;;;;18.40;77.90;;;;;;5015976;28;19929;-69
2023/10/02 09:43:49;;;;;;;;;;;18.60;77.00;;;;;;5020926;28;19933;-69
2023/10/02 09:46:23;;;;;;;;;;;18.60;76.10;;;;;;5016790;28;19968;-68
2023/10/02 09:49:01;;;;;;;;;;;18.80;76.30;;;;;;5021243;28;19925;-67
2023/10/02 09:52:09;;;;;;;;;;;18.90;76.00;;;;;;5014433;28;20016;-68
2023/10/02 09:54:46;;;;;;;;;;;19.00;76.10;;;;;;4997093;28;19936;-68
2023/10/02 09:57:24;;;;;;;;;;;19.10;75.80;;;;;;4999726;28;19977;-68
2023/10/02 09:59:57;;;;;;;;;;;19.10;75.40;;;;;;5014789;28;19929;-68
2023/10/02 10:02:49;;;;;;;;;;;19.20;74.80;;;;;;5019766;28;19925;-67
2023/10/02 10:05:45;;;;;;;;;;;19.30;74.30;;;;;;4994365;28;19937;-68
2023/10/02 10:08:33;;;;;;;;;;;19.40;73.70;;;;;;5016975;28;19983;-69
2023/10/02 10:11:13;;;;;;;;;;;19.60;73.90;;;;;;5034705;28;19957;-68
2023/10/02 10:13:49;;;;;;;;;;;19.60;73.40;;;;;;5019107;28;19925;-68
2023/10/02 10:16:35;;;;;;;;;;;19.70;73.20;;;;;;5010439;28;19936;-66
2023/10/02 10:19:26;;;;;;;;;;;19.80;72.80;;;;;;5017517;28;19933;-66
2023/10/02 10:22:10;;;;;;;;;;;19.90;72.80;;;;;;5017256;28;19929;-68
2023/10/02 10:27:59;;;;;;;;;;;20.00;71.70;;;;;;4983670;28;20384;-67
2023/10/02 10:30:33;;;;;;;;;;;20.10;71.30;;;;;;4996403;28;19944;-68
2023/10/02 10:33:27;;;;;;;;;;;20.20;70.90;;;;;;5003355;28;19984;-67
2023/10/02 10:36:05;;;;;;;;;;;20.20;70.80;;;;;;5018075;28;19925;-67
2023/10/02 10:38:41;;;;;;;;;;;20.30;70.20;;;;;;5021205;28;19925;-68
2023/10/02 10:41:30;;;;;;;;;;;20.40;69.90;;;;;;5020032;28;20106;-67
2023/10/02 10:44:07;;;;;;;;;;;20.50;69.50;;;;;;5019444;28;19979;-68
2023/10/02 10:46:48;;;;;;;;;;;20.60;69.10;;;;;;5020943;28;19928;-69
2023/10/02 10:49:24;;;;;;;;;;;20.60;68.80;;;;;;5016585;28;20373;-67
2023/10/02 10:51:58;;;;;;;;;;;20.70;68.80;;;;;;5020361;28;20377;-66
2023/10/02 10:54:31;;;;;;;;;;;20.70;68.50;;;;;;5019422;28;19936;-67
2023/10/02 11:00:23;;;;;;;;;;;20.70;68.70;;;;;;5003727;28;20389;-68
2023/10/02 11:02:57;;;;;;;;;;;20.70;68.90;;;;;;5020363;28;19989;-70
2023/10/02 11:05:33;;;;;;;;;;;20.70;68.70;;;;;;5010392;28;19934;-69
2023/10/02 11:08:24;;;;;;;;;;;20.70;68.80;;;;;;5016620;28;19933;-67
2023/10/02 11:11:01;;;;;;;;;;;20.80;68.40;;;;;;5018331;28;20297;-67
2023/10/02 11:13:51;;;;;;;;;;;20.80;68.20;;;;;;5015590;28;20692;-68
2023/10/02 11:16:30;;;;;;;;;;;20.90;68.30;;;;;;5017146;28;19979;-68
2023/10/02 11:19:10;;;;;;;;;;;21.00;68.80;;;;;;5018648;28;19964;-68
2023/10/02 11:22:14;;;;;;;;;;;21.00;68.10;;;;;;5014401;28;19934;-68
2023/10/02 11:25:17;;;;;;;;;;;21.00;69.20;;;;;;4987616;28;19925;-68
2023/10/02 11:27:57;;;;;;;;;;;20.90;68.70;;;;;;5002487;28;20040;-69
2023/10/02 11:30:36;;;;;;;;;;;21.00;68.90;;;;;;4996571;28;19937;-68
2023/10/02 11:33:10;;;;;;;;;;;21.00;69.00;;;;;;4998386;28;19941;-69
2023/10/02 11:35:46;;;;;;;;;;;21.10;69.00;;;;;;4996261;28;19930;-68
2023/10/02 11:38:23;;;;;;;;;;;21.10;68.70;;;;;;5012282;28;19935;-68
2023/10/02 11:40:57;;;;;;;;;;;21.10;69.20;;;;;;5013993;28;19932;-67
2023/10/02 11:43:34;;;;;;;;;;;21.00;69.20;;;;;;5017916;28;19961;-66
2023/10/02 11:46:08;;;;;;;;;;;21.00;69.30;;;;;;5016840;28;19975;-66
2023/10/02 11:48:42;;;;;;;;;;;21.10;69.30;;;;;;5017044;28;20002;-65
2023/10/02 11:51:12;;;;;;;;;;;21.10;68.90;;;;;;5014552;28;19933;-66
2023/10/02 11:53:45;;;;;;;;;;;21.10;69.60;;;;;;5015933;28;19933;-65
2023/10/02 11:56:20;;;;;;;;;;;21.10;69.40;;;;;;4984692;28;20296;-65
2023/10/02 11:58:53;;;;;;;;;;;21.10;69.60;;;;;;5014358;28;19977;-67
2023/10/02 12:01:29;;;;;;;;;;;21.00;69.70;;;;;;5016291;28;19933;-66
2023/10/02 12:04:04;;;;;;;;;;;21.10;69.80;;;;;;5017815;28;19936;-66
2023/10/02 12:06:38;;;;;;;;;;;21.00;70.00;;;;;;5011885;28;19933;-66
2023/10/02 12:09:17;;;;;;;;;;;21.00;69.60;;;;;;5016336;28;20291;-66
2023/10/02 12:11:50;;;;;;;;;;;21.00;70.10;;;;;;5017390;28;19994;-66
2023/10/02 12:14:23;;;;;;;;;;;21.00;69.80;;;;;;4998580;28;20404;-65
2023/10/02 12:16:58;;;;;;;;;;;21.10;70.30;;;;;;4998342;28;20377;-67
2023/10/02 12:19:36;;;;;;;;;;;21.10;70.60;;;;;;4997651;28;19934;-67
2023/10/02 12:22:09;;;;;;;;;;;21.10;69.90;;;;;;4990125;28;19929;-66
2023/10/02 12:24:42;;;;;;;;;;;21.10;69.80;;;;;;4997231;28;19929;-65
2023/10/02 12:27:17;;;;;;;;;;;21.10;69.90;;;;;;4994738;28;20415;-67
2023/10/02 12:29:50;;;;;;;;;;;21.10;69.90;;;;;;4994739;28;20016;-67
2023/10/02 12:32:27;;;;;;;;;;;21.10;70.00;;;;;;4990581;28;19940;-67
2023/10/02 12:35:00;;;;;;;;;;;21.10;69.80;;;;;;5016687;28;20269;-65
2023/10/02 12:37:33;;;;;;;;;;;21.10;70.20;;;;;;5015767;28;20404;-66
2023/10/02 12:40:11;;;;;;;;;;;21.10;70.50;;;;;;5014139;28;19983;-66
2023/10/02 12:42:44;;;;;;;;;;;21.10;70.30;;;;;;5016270;28;19925;-67
2023/10/02 12:45:17;;;;;;;;;;;21.10;70.50;;;;;;5013349;28;19929;-66
2023/10/02 12:47:52;;;;;;;;;;;21.10;70.20;;;;;;5016615;28;19960;-65
2023/10/02 12:50:25;;;;;;;;;;;21.10;70.50;;;;;;5017980;28;19965;-67
2023/10/02 12:52:58;;;;;;;;;;;21.00;70.60;;;;;;5013270;28;19934;-67
2023/10/02 12:55:32;;;;;;;;;;;21.00;70.60;;;;;;5013775;28;19971;-68
2023/10/02 12:58:05;;;;;;;;;;;21.00;71.10;;;;;;5018274;28;19933;-68
2023/10/02 13:00:38;;;;;;;;;;;20.90;71.00;;;;;;5016757;28;19965;-67
2023/10/02 13:03:13;;;;;;;;;;;20.90;70.80;;;;;;5013510;28;19933;-69
2023/10/02 13:05:46;;;;;;;;;;;20.90;70.60;;;;;;5009599;28;19931;-68
2023/10/02 13:08:20;;;;;;;;;;;20.90;70.80;;;;;;5014924;28;19941;-68
2023/10/02 13:10:53;;;;;;;;;;;20.90;70.60;;;;;;5017436;28;19984;-66
2023/10/02 13:13:27;;;;;;;;;;;20.90;70.80;;;;;;5017367;28;19933;-67
2023/10/02 13:16:00;;;;;;;;;;;20.90;70.70;;;;;;5021003;28;19925;-68
2023/10/02 13:18:29;;;;;;;;;;;20.80;70.70;;;;;;5021439;28;19925;-69
2023/10/02 13:21:03;;;;;;;;;;;20.90;70.60;;;;;;5018646;28;19963;-68
2023/10/02 13:23:36;;;;;;;;;;;20.90;70.50;;;;;;5018798;28;19956;-68
2023/10/02 13:26:10;;;;;;;;;;;20.90;70.80;;;;;;5022858;28;20056;-68
2023/10/02 13:28:48;;;;;;;;;;;20.90;70.40;;;;;;5022660;28;19940;-68
2023/10/02 13:31:23;;;;;;;;;;;20.80;70.40;;;;;;5020819;28;19936;-69
2023/10/02 13:33:52;;;;;;;;;;;20.90;70.80;;;;;;5023455;28;20397;-67
2023/10/02 13:36:26;;;;;;;;;;;20.80;70.80;;;;;;5021740;28;19925;-68
2023/10/02 13:39:00;;;;;;;;;;;20.80;70.70;;;;;;5016887;28;19969;-67
2023/10/02 13:41:34;;;;;;;;;;;20.80;70.60;;;;;;5020743;28;19944;-68
2023/10/02 13:44:08;;;;;;;;;;;20.70;71.10;;;;;;5018542;28;19935;-67
2023/10/02 13:46:41;;;;;;;;;;;20.70;71.00;;;;;;5015730;28;20456;-67
2023/10/02 13:49:18;;;;;;;;;;;20.70;70.90;;;;;;5007380;28;20372;-67
2023/10/02 13:51:51;;;;;;;;;;;20.70;70.50;;;;;;5018691;28;19925;-67
2023/10/02 13:54:18;;;;;;;;;;;20.80;70.70;;;;;;5016550;28;19936;-68
2023/10/02 13:56:51;;;;;;;;;;;20.80;70.60;;;;;;5019918;28;19925;-67
2023/10/02 13:59:24;;;;;;;;;;;20.80;70.70;;;;;;4989583;28;20438;-67
2023/10/02 14:01:57;;;;;;;;;;;20.70;70.80;;;;;;5005962;28;20400;-65
2023/10/02 14:04:32;;;;;;;;;;;20.70;70.70;;;;;;5017285;28;19963;-67
2023/10/02 14:07:06;;;;;;;;;;;20.70;70.90;;;;;;5004620;28;19935;-67
2023/10/02 14:09:39;;;;;;;;;;;20.70;70.70;;;;;;5036074;28;20422;-66
2023/10/02 14:12:14;;;;;;;;;;;20.70;70.80;;;;;;5022824;28;20395;-67
2023/10/02 14:14:47;;;;;;;;;;;20.70;71.20;;;;;;5021449;28;19929;-67
2023/10/02 14:17:20;;;;;;;;;;;20.70;71.00;;;;;;4997620;28;19929;-67
2023/10/02 14:19:54;;;;;;;;;;;20.80;71.20;;;;;;5020462;28;20829;-67
2023/10/02 14:22:28;;;;;;;;;;;20.70;71.30;;;;;;5016421;28;19961;-67
2023/10/02 14:25:05;;;;;;;;;;;20.70;71.60;;;;;;5019821;28;19934;-67
2023/10/02 14:27:39;;;;;;;;;;;20.70;71.70;;;;;;5021741;28;20774;-66
2023/10/02 14:30:13;;;;;;;;;;;20.70;71.60;;;;;;5020298;28;19967;-66
2023/10/02 14:32:47;;;;;;;;;;;20.70;71.80;;;;;;5012183;28;19983;-66
2023/10/02 14:35:24;;;;;;;;;;;20.80;71.60;;;;;;5015689;28;19937;-67
2023/10/02 14:37:57;;;;;;;;;;;20.80;71.80;;;;;;5016517;28;19969;-67
2023/10/02 14:40:30;;;;;;;;;;;20.80;71.70;;;;;;5017316;28;19973;-67
2023/10/02 14:43:12;;;;;;;;;;;20.80;71.80;;;;;;5018801;28;20384;-65
2023/10/02 14:45:45;;;;;;;;;;;20.80;71.80;;;;;;5016533;28;19929;-66
2023/10/02 14:48:20;;;;;;;;;;;20.90;71.90;;;;;;5020019;28;19929;-67
2023/10/02 14:50:58;;;;;;;;;;;20.80;72.00;;;;;;5019586;28;19930;-67
2023/10/02 14:53:32;;;;;;;;;;;20.80;71.80;;;;;;5019253;28;20440;-67
2023/10/02 14:56:05;;;;;;;;;;;20.80;72.00;;;;;;5019451;28;19972;-66
2023/10/02 14:58:46;;;;;;;;;;;20.90;72.00;;;;;;5020192;28;19928;-67
2023/10/02 15:01:19;;;;;;;;;;;20.90;72.10;;;;;;5010979;28;19925;-67
2023/10/02 15:03:55;;;;;;;;;;;20.90;72.20;;;;;;5020749;28;19926;-67
2023/10/02 15:06:30;;;;;;;;;;;20.90;72.30;;;;;;5009021;28;19925;-66
2023/10/02 15:09:09;;;;;;;;;;;20.90;72.20;;;;;;5000809;28;19949;-67
2023/10/02 15:11:42;;;;;;;;;;;20.90;72.30;;;;;;5001280;28;19936;-66
2023/10/02 15:14:15;;;;;;;;;;;20.90;72.30;;;;;;5000691;28;20000;-66
2023/10/02 15:16:56;;;;;;;;;;;20.90;72.50;;;;;;4999523;28;19929;-67
2023/10/02 15:19:29;;;;;;;;;;;20.90;73.40;;;;;;5029718;28;19929;-65
2023/10/02 15:22:04;;;;;;;;;;;21.00;74.40;;;;;;5020537;28;19925;-68
2023/10/02 15:24:37;;;;;;;;;;;20.90;73.90;;;;;;5020472;28;19932;-66
2023/10/02 15:27:10;;;;;;;;;;;20.90;73.80;;;;;;5019544;28;19933;-68
2023/10/02 15:29:43;;;;;;;;;;;20.90;74.40;;;;;;5020196;28;20008;-67
2023/10/02 15:32:20;;;;;;;;;;;21.00;75.70;;;;;;5020711;28;19962;-66
2023/10/02 15:34:53;;;;;;;;;;;21.00;76.20;;;;;;5017977;28;20343;-68
2023/10/02 15:37:29;;;;;;;;;;;20.90;76.50;;;;;;5003900;28;20024;-67
2023/10/02 15:40:07;;;;;;;;;;;20.90;76.00;;;;;;5019108;28;19932;-65
2023/10/02 15:42:41;;;;;;;;;;;20.90;77.90;;;;;;5019679;28;19937;-66
2023/10/02 15:45:15;;;;;;;;;;;20.90;77.80;;;;;;5006997;28;19938;-66